Time;durP1;ratioP1;P1;durP2;ratioP2;P2;SDS_P1;SDS_P2;PMS_P1;PMS_P2;Temp;Humidity;BMP_temperature;BMP_pressure;BME280_temperature;BME280_humidity;BME280_pressure;Samples;Min_cycle;Max_cycle;Signal;HPM_P1;HPM_P2
2024/01/13 00:00:13;;;;;;;17.10;7.85;;;;;;;2.30;63.15;98268.25;4997396;28;20120;-81
2024/01/13 00:02:38;;;;;;;14.07;7.78;;;;;;;2.26;63.41;98266.97;5017216;28;20033;-82
2024/01/13 00:05:04;;;;;;;16.10;8.10;;;;;;;2.36;63.14;98265.00;5023658;28;20549;-82
2024/01/13 00:07:29;;;;;;;17.70;8.90;;;;;;;2.43;62.88;98260.03;5000998;28;20025;-81
2024/01/13 00:09:55;;;;;;;18.85;9.15;;;;;;;2.42;63.01;98259.22;5004361;28;20052;-81
2024/01/13 00:12:20;;;;;;;17.65;8.95;;;;;;;2.27;62.49;98257.50;5013034;28;20041;-82
2024/01/13 00:14:45;;;;;;;17.92;8.95;;;;;;;2.40;62.89;98252.66;4999913;28;20044;-82
2024/01/13 00:17:11;;;;;;;17.95;7.63;;;;;;;2.40;62.85;98242.38;5009410;28;20104;-80
2024/01/13 00:19:36;;;;;;;17.65;7.88;;;;;;;2.27;62.71;98245.44;4996033;28;20029;-82
2024/01/13 00:22:01;;;;;;;15.60;7.90;;;;;;;2.20;63.25;98250.44;4996380;28;20095;-81
2024/01/13 00:24:27;;;;;;;18.83;7.90;;;;;;;2.43;62.35;98249.75;5009986;28;20088;-82
2024/01/13 00:26:52;;;;;;;16.35;8.90;;;;;;;2.36;62.76;98247.03;4993539;28;20085;-82
2024/01/13 00:29:20;;;;;;;17.58;8.98;;;;;;;2.25;62.93;98247.38;5009435;28;20029;-82
2024/01/13 00:31:46;;;;;;;18.15;8.48;;;;;;;2.24;63.30;98241.47;4995580;28;20049;-82
2024/01/13 00:34:11;;;;;;;17.80;8.90;;;;;;;2.30;62.84;98232.28;4995382;28;20102;-82
2024/01/13 00:36:36;;;;;;;20.08;10.30;;;;;;;2.28;63.03;98247.06;4979315;28;20033;-82
2024/01/13 00:39:02;;;;;;;17.95;8.70;;;;;;;2.24;63.33;98238.06;4993912;28;20484;-83
2024/01/13 00:41:27;;;;;;;17.13;8.45;;;;;;;2.21;63.46;98238.38;4995163;28;20038;-83
2024/01/13 00:43:53;;;;;;;17.70;8.80;;;;;;;2.25;63.80;98234.53;5000133;28;20064;-82
2024/01/13 00:46:18;;;;;;;16.52;8.48;;;;;;;2.27;63.49;98224.91;5016042;28;20022;-82
2024/01/13 00:48:43;;;;;;;17.77;8.30;;;;;;;2.41;62.28;98219.06;5014388;28;20509;-82
2024/01/13 00:51:10;;;;;;;21.13;9.02;;;;;;;2.28;62.49;98225.69;4998646;28;20473;-81
2024/01/13 00:53:36;;;;;;;18.48;7.95;;;;;;;2.20;63.07;98231.66;5024073;28;20508;-82
2024/01/13 00:56:02;;;;;;;16.58;7.97;;;;;;;2.16;63.87;98217.53;4992845;28;20038;-82
2024/01/13 00:58:27;;;;;;;15.35;8.00;;;;;;;2.27;63.18;98218.97;5014182;28;20594;-83
2024/01/13 01:00:53;;;;;;;16.27;7.30;;;;;;;2.44;62.24;98210.22;5015108;28;20091;-82
2024/01/13 01:03:18;;;;;;;17.77;8.85;;;;;;;2.33;63.15;98216.53;4999531;28;20068;-82
2024/01/13 01:05:43;;;;;;;14.20;6.75;;;;;;;2.32;63.00;98211.56;5005434;28;20062;-83
2024/01/13 01:08:09;;;;;;;14.80;7.22;;;;;;;2.26;62.91;98202.72;4982165;28;20025;-82
2024/01/13 01:10:34;;;;;;;12.68;6.57;;;;;;;2.25;62.88;98208.84;5009019;28;20057;-81
2024/01/13 01:13:00;;;;;;;15.63;7.72;;;;;;;2.20;63.14;98206.75;5004353;28;20084;-82
2024/01/13 01:15:25;;;;;;;17.10;7.75;;;;;;;2.22;63.70;98209.97;4997999;28;20041;-82
2024/01/13 01:17:50;;;;;;;16.13;7.25;;;;;;;2.23;63.45;98205.66;5009619;28;20109;-83
2024/01/13 01:20:16;;;;;;;12.93;6.88;;;;;;;2.28;63.71;98202.56;4977409;28;20036;-81
2024/01/13 01:22:41;;;;;;;15.52;6.60;;;;;;;2.28;63.74;98208.53;4994093;28;20033;-78
2024/01/13 01:25:07;;;;;;;13.25;6.15;;;;;;;2.24;63.06;98202.09;5013407;28;20113;-77
2024/01/13 01:27:32;;;;;;;16.45;8.10;;;;;;;2.32;63.45;98193.56;5012004;28;20398;-78
2024/01/13 01:29:57;;;;;;;17.20;9.10;;;;;;;2.41;62.27;98198.50;5006991;28;20029;-78
2024/01/13 01:32:23;;;;;;;16.00;8.15;;;;;;;2.41;62.43;98198.50;4987804;28;20096;-78
2024/01/13 01:34:49;;;;;;;16.67;8.85;;;;;;;2.37;62.80;98196.44;4997860;28;20025;-78
2024/01/13 01:37:14;;;;;;;16.00;7.80;;;;;;;2.35;62.55;98199.19;5009885;28;20038;-78
2024/01/13 01:39:39;;;;;;;13.18;7.35;;;;;;;2.23;63.14;98195.38;5005667;28;20038;-78
2024/01/13 01:42:05;;;;;;;16.45;8.20;;;;;;;2.43;62.78;98199.16;5009295;28;20111;-78
2024/01/13 01:44:30;;;;;;;17.02;8.32;;;;;;;2.33;62.93;98193.41;4995181;28;20032;-78
2024/01/13 01:46:57;;;;;;;19.27;9.32;;;;;;;2.34;62.45;98182.16;4989058;28;20045;-78
2024/01/13 01:49:23;;;;;;;19.55;8.77;;;;;;;2.24;62.65;98177.22;4998488;28;20544;-78
2024/01/13 01:51:48;;;;;;;16.30;7.65;;;;;;;2.13;63.57;98175.00;5007662;28;20109;-78
2024/01/13 01:54:14;;;;;;;14.38;8.05;;;;;;;2.31;63.33;98179.09;4974878;28;20452;-78
2024/01/13 01:56:39;;;;;;;16.08;6.80;;;;;;;2.47;62.70;98176.50;5006172;28;20075;-78
2024/01/13 01:59:06;;;;;;;18.13;8.35;;;;;;;2.30;62.55;98180.88;5009571;28;20117;-78
2024/01/13 02:01:31;;;;;;;16.33;7.88;;;;;;;2.15;62.83;98173.06;5006976;28;20394;-78
2024/01/13 02:03:57;;;;;;;15.48;8.57;;;;;;;2.36;62.87;98164.00;5005946;28;20052;-78
2024/01/13 02:06:23;;;;;;;17.83;8.55;;;;;;;2.33;62.58;98164.31;5010437;28;20080;-78
2024/01/13 02:08:49;;;;;;;15.77;7.70;;;;;;;2.20;62.93;98159.72;4991148;28;20045;-78
2024/01/13 02:11:14;;;;;;;16.50;7.18;;;;;;;2.20;63.07;98172.56;5014390;28;20108;-78
2024/01/13 02:13:41;;;;;;;14.00;7.32;;;;;;;2.22;63.22;98168.84;5014124;28;20029;-78
2024/01/13 02:16:08;;;;;;;17.10;7.90;;;;;;;2.41;62.84;98159.94;5009051;28;20028;-78
2024/01/13 02:18:33;;;;;;;16.80;7.32;;;;;;;2.34;63.03;98158.22;5012822;28;20037;-78
2024/01/13 02:20:59;;;;;;;15.98;7.80;;;;;;;2.40;63.11;98158.34;5022768;28;20044;-78
2024/01/13 02:23:24;;;;;;;15.05;7.82;;;;;;;2.29;62.31;98158.72;4998687;28;20455;-80
2024/01/13 02:25:49;;;;;;;18.13;8.32;;;;;;;2.24;63.14;98163.56;5009747;28;20033;-82
2024/01/13 02:28:18;;;;;;;14.60;7.82;;;;;;;2.25;63.14;98163.38;4994598;28;20421;-80
2024/01/13 02:30:43;;;;;;;14.18;6.50;;;;;;;2.13;63.08;98159.59;5011464;28;20281;-82
2024/01/13 02:33:09;;;;;;;15.82;7.68;;;;;;;2.36;63.16;98159.66;4996257;28;20404;-80
2024/01/13 02:35:34;;;;;;;17.75;8.05;;;;;;;2.41;62.40;98151.44;4999109;28;20409;-82
2024/01/13 02:37:59;;;;;;;15.75;7.63;;;;;;;2.18;63.33;98141.09;5023226;28;20633;-80
2024/01/13 02:40:25;;;;;;;18.70;8.38;;;;;;;2.14;63.22;98144.97;5001869;28;20053;-82
2024/01/13 02:42:50;;;;;;;20.80;10.48;;;;;;;2.38;63.21;98133.78;5008840;28;20034;-81
2024/01/13 02:45:16;;;;;;;21.20;9.07;;;;;;;2.32;62.65;98137.03;5026685;28;20030;-81
2024/01/13 02:48:04;;;;;;;14.32;7.43;;;;;;;2.37;63.18;98130.41;4995989;28;20856;-82
2024/01/13 02:50:29;;;;;;;21.45;8.40;;;;;;;2.18;62.62;98125.69;5008057;28;20044;-81
2024/01/13 02:52:55;;;;;;;17.48;7.65;;;;;;;2.15;63.75;98126.81;4997969;28;20299;-80
2024/01/13 02:55:21;;;;;;;17.67;8.23;;;;;;;2.23;63.30;98124.22;5014690;28;20095;-83
2024/01/13 02:57:47;;;;;;;14.60;7.78;;;;;;;2.12;63.56;98116.06;5007171;28;20065;-82
2024/01/13 03:00:13;;;;;;;15.52;7.60;;;;;;;2.24;63.64;98115.56;4993358;28;20025;-81
2024/01/13 03:02:39;;;;;;;16.17;7.18;;;;;;;2.25;63.50;98126.63;4999076;28;20041;-82
2024/01/13 03:05:09;;;;;;;13.88;7.20;;;;;;;2.23;63.20;98119.06;5007572;28;20100;-83
2024/01/13 03:07:34;;;;;;;15.85;6.70;;;;;;;2.21;63.62;98120.19;4996885;28;20041;-82
2024/01/13 03:09:59;;;;;;;13.23;7.00;;;;;;;2.25;63.15;98113.78;4975831;28;20030;-82
2024/01/13 03:12:25;;;;;;;16.92;8.27;;;;;;;2.19;63.52;98106.72;4989883;28;20072;-81
2024/01/13 03:14:50;;;;;;;17.48;7.82;;;;;;;2.08;63.47;98114.81;4992491;28;20030;-80
2024/01/13 03:17:16;;;;;;;14.57;7.35;;;;;;;2.10;64.34;98108.53;5006126;28;20495;-82
2024/01/13 03:19:41;;;;;;;17.70;8.45;;;;;;;2.01;63.95;98104.41;5008535;28;20025;-82
2024/01/13 03:22:06;;;;;;;8.45;4.28;;;;;;;2.09;63.33;98106.13;5012718;28;20265;-82
2024/01/13 03:24:32;;;;;;;19.42;8.10;;;;;;;1.99;63.81;98103.78;4992062;28;20463;-82
2024/01/13 03:26:57;;;;;;;16.05;7.10;;;;;;;2.06;63.75;98105.50;4983278;28;20041;-80
2024/01/13 03:29:23;;;;;;;15.30;7.95;;;;;;;2.15;64.06;98097.75;4983149;28;20070;-82
2024/01/13 03:31:48;;;;;;;15.57;7.30;;;;;;;2.18;64.05;98094.88;4979220;28;20246;-82
2024/01/13 03:34:13;;;;;;;17.02;8.05;;;;;;;2.25;63.52;98103.50;5007482;28;20083;-78
2024/01/13 03:36:39;;;;;;;16.20;7.85;;;;;;;2.22;63.45;98094.34;5016663;28;20385;-78
2024/01/13 03:39:05;;;;;;;17.13;7.88;;;;;;;2.23;64.04;98097.72;5009310;28;20119;-79
2024/01/13 03:41:31;;;;;;;17.33;7.82;;;;;;;2.28;63.42;98095.47;5004267;28;20021;-78
2024/01/13 03:43:57;;;;;;;17.23;7.88;;;;;;;2.19;63.66;98096.44;5009721;28;20029;-78
2024/01/13 03:46:23;;;;;;;14.10;7.55;;;;;;;2.24;63.66;98099.31;4996757;28;20050;-77
2024/01/13 03:48:49;;;;;;;16.10;7.30;;;;;;;2.20;63.56;98080.88;5010754;28;20026;-78
2024/01/13 03:51:16;;;;;;;16.98;7.10;;;;;;;2.30;63.26;98072.16;5019698;28;20453;-78
2024/01/13 03:53:42;;;;;;;15.02;7.53;;;;;;;2.17;63.67;98067.56;5002143;28;20036;-77
2024/01/13 03:56:08;;;;;;;16.92;7.00;;;;;;;2.18;63.83;98074.31;4981803;28;20099;-78
2024/01/13 03:58:40;;;;;;;15.70;6.93;;;;;;;2.29;62.97;98081.63;5000308;28;20374;-78
2024/01/13 04:01:05;;;;;;;15.55;8.05;;;;;;;2.25;63.68;98075.22;5018783;28;20046;-79
2024/01/13 04:03:31;;;;;;;16.00;7.32;;;;;;;2.25;63.68;98070.09;5012194;28;20033;-78
2024/01/13 04:05:58;;;;;;;16.02;7.65;;;;;;;2.33;63.29;98074.38;5018110;28;20060;-78
2024/01/13 04:08:24;;;;;;;16.50;7.72;;;;;;;2.21;63.25;98074.78;5017796;28;20030;-78
2024/01/13 04:10:51;;;;;;;19.17;9.00;;;;;;;2.15;64.04;98075.44;5018180;28;20033;-78
2024/01/13 04:13:17;;;;;;;16.30;7.40;;;;;;;2.21;63.89;98072.19;5011751;28;20606;-78
2024/01/13 04:15:42;;;;;;;15.43;7.97;;;;;;;2.26;63.74;98076.81;4983841;28;20044;-78
2024/01/13 04:18:08;;;;;;;16.45;7.32;;;;;;;2.14;63.58;98075.59;5015303;28;20037;-79
2024/01/13 04:20:33;;;;;;;18.17;8.25;;;;;;;2.18;64.19;98069.97;5007318;28;20311;-78
2024/01/13 04:22:59;;;;;;;15.70;7.28;;;;;;;2.21;63.47;98069.63;5008752;28;20068;-78
2024/01/13 04:25:24;;;;;;;13.00;6.80;;;;;;;2.24;63.80;98078.75;5017072;28;20037;-78
2024/01/13 04:27:52;;;;;;;12.48;5.97;;;;;;;2.24;63.98;98078.75;5016909;28;20025;-78
2024/01/13 04:30:18;;;;;;;13.68;6.78;;;;;;;2.30;63.99;98078.09;5001530;28;20444;-78
2024/01/13 04:32:43;;;;;;;14.75;7.10;;;;;;;2.38;63.33;98080.63;5008985;28;20087;-79
2024/01/13 04:35:09;;;;;;;15.10;7.47;;;;;;;2.34;63.51;98069.06;4985176;28;20037;-79
2024/01/13 04:37:35;;;;;;;16.92;7.82;;;;;;;2.32;62.97;98076.16;5015888;28;20645;-78
2024/01/13 04:40:00;;;;;;;14.25;8.15;;;;;;;2.32;63.18;98078.72;4990555;28;20029;-78
2024/01/13 04:42:26;;;;;;;16.00;6.75;;;;;;;2.26;63.78;98076.81;5026322;28;20037;-78
2024/01/13 04:44:51;;;;;;;15.55;8.43;;;;;;;2.29;63.89;98076.47;5006705;28;20124;-82
2024/01/13 04:47:16;;;;;;;14.02;7.28;;;;;;;2.32;63.93;98070.22;5007710;28;20037;-81
2024/01/13 04:49:42;;;;;;;15.15;7.40;;;;;;;2.45;63.51;98075.63;5003846;28;20053;-81
2024/01/13 04:52:08;;;;;;;14.98;7.57;;;;;;;2.34;63.03;98063.94;5000663;28;20249;-82
2024/01/13 04:54:33;;;;;;;13.25;6.72;;;;;;;2.35;63.03;98080.16;5016892;28;20037;-82
2024/01/13 04:57:00;;;;;;;14.90;7.10;;;;;;;2.36;63.52;98071.47;5011200;28;20029;-82
2024/01/13 04:59:25;;;;;;;13.20;6.05;;;;;;;2.37;63.45;98068.75;4998226;28;20488;-82
2024/01/13 05:01:51;;;;;;;13.88;5.82;;;;;;;2.34;62.88;98074.22;5013480;28;20038;-82
2024/01/13 05:04:16;;;;;;;11.57;5.35;;;;;;;2.46;62.64;98066.13;5009576;28;20030;-81
2024/01/13 05:06:41;;;;;;;8.13;4.00;;;;;;;2.43;61.88;98073.22;5015222;28;20489;-81
2024/01/13 05:09:07;;;;;;;5.55;2.80;;;;;;;2.43;62.71;98059.53;5001949;28;20040;-81
2024/01/13 05:11:32;;;;;;;9.82;4.45;;;;;;;2.30;62.64;98051.63;5000380;28;20060;-82
2024/01/13 05:13:58;;;;;;;7.80;3.58;;;;;;;2.25;62.86;98062.38;4978018;28;20464;-82
2024/01/13 05:16:23;;;;;;;10.25;4.65;;;;;;;2.35;62.99;98060.41;5013886;28;20041;-82
2024/01/13 05:18:48;;;;;;;10.27;5.50;;;;;;;2.28;62.76;98054.34;5016284;28;20507;-81
2024/01/13 05:21:14;;;;;;;8.40;4.63;;;;;;;2.37;62.26;98050.75;5012148;28;20409;-82
2024/01/13 05:23:39;;;;;;;8.32;4.75;;;;;;;2.40;61.74;98050.41;5030863;28;20037;-81
2024/01/13 05:26:08;;;;;;;8.27;4.93;;;;;;;2.39;62.81;98048.00;5027517;28;20113;-82
2024/01/13 05:28:33;;;;;;;8.93;4.15;;;;;;;2.34;62.60;98048.50;5007573;28;20034;-81
2024/01/13 05:30:59;;;;;;;9.95;4.43;;;;;;;2.43;62.09;98051.81;5007044;28;20041;-82
2024/01/13 05:33:26;;;;;;;7.63;3.85;;;;;;;2.33;62.54;98046.09;5006272;28;20021;-82
2024/01/13 05:35:53;;;;;;;7.18;3.42;;;;;;;2.27;62.84;98045.03;5013228;28;20153;-82
2024/01/13 05:38:19;;;;;;;7.13;3.72;;;;;;;2.41;61.93;98048.63;5015592;28;20040;-82
2024/01/13 05:40:44;;;;;;;7.13;4.03;;;;;;;2.40;62.00;98042.69;5009406;28;20029;-81
2024/01/13 05:43:10;;;;;;;7.80;4.10;;;;;;;2.33;62.15;98026.38;5015153;28;20482;-81
2024/01/13 05:45:35;;;;;;;9.05;4.95;;;;;;;2.34;61.28;98022.03;4983658;28;20132;-78
2024/01/13 05:48:01;;;;;;;7.00;3.47;;;;;;;2.27;61.59;98023.69;4998297;28;20053;-78
2024/01/13 05:50:27;;;;;;;5.80;2.40;;;;;;;2.37;62.02;98017.34;4983229;28;20040;-78
2024/01/13 05:52:52;;;;;;;3.83;2.20;;;;;;;2.38;61.65;98018.13;5016716;28;20072;-77
2024/01/13 05:55:18;;;;;;;4.00;1.85;;;;;;;2.33;62.11;98021.22;4998517;28;20029;-78
2024/01/13 05:57:43;;;;;;;5.78;2.63;;;;;;;2.26;62.13;98015.16;5010992;28;20489;-78
2024/01/13 06:00:09;;;;;;;3.47;1.52;;;;;;;2.27;62.66;98021.09;4997558;28;20033;-79
2024/01/13 06:02:35;;;;;;;7.50;4.28;;;;;;;2.34;61.94;98009.97;4996689;28;20124;-78
2024/01/13 06:05:00;;;;;;;6.45;4.75;;;;;;;2.41;61.85;98010.88;5014755;28;20776;-78
2024/01/13 06:07:26;;;;;;;6.25;3.78;;;;;;;2.54;61.18;98012.09;4999777;28;20045;-78
2024/01/13 06:09:51;;;;;;;6.50;3.67;;;;;;;2.37;61.07;98011.41;5011471;28;20102;-78
2024/01/13 06:12:17;;;;;;;5.57;3.05;;;;;;;2.38;61.73;98013.00;5021833;28;20038;-78
2024/01/13 06:14:43;;;;;;;5.75;3.28;;;;;;;2.29;62.01;98004.53;5016412;28;20040;-78
2024/01/13 06:17:08;;;;;;;7.60;3.97;;;;;;;2.23;62.44;98006.03;5011694;28;20109;-78
2024/01/13 06:19:34;;;;;;;6.53;3.55;;;;;;;2.26;62.48;98002.31;4983336;28;20033;-78
2024/01/13 06:21:59;;;;;;;7.00;4.00;;;;;;;2.32;62.12;98009.34;4999951;28;20126;-78
2024/01/13 06:24:25;;;;;;;8.13;4.60;;;;;;;2.51;61.63;98015.00;5022559;28;20116;-78
2024/01/13 06:26:50;;;;;;;7.85;4.20;;;;;;;2.49;61.08;98014.38;4990602;28;20032;-78
2024/01/13 06:29:15;;;;;;;9.10;4.53;;;;;;;2.56;61.01;98015.28;5005141;28;20470;-79
2024/01/13 06:31:41;;;;;;;9.43;3.92;;;;;;;2.69;60.83;98012.94;5013049;28;20052;-77
2024/01/13 06:34:06;;;;;;;8.13;4.38;;;;;;;2.50;61.11;98008.25;4994752;28;20098;-78
2024/01/13 06:36:31;;;;;;;6.82;3.60;;;;;;;2.36;61.25;98002.88;4998292;28;20059;-78
2024/01/13 06:38:57;;;;;;;5.88;3.30;;;;;;;2.35;62.03;98003.88;5005381;28;20042;-78
2024/01/13 06:41:23;;;;;;;6.60;3.78;;;;;;;2.39;61.88;98002.53;4997167;28;20034;-78
2024/01/13 06:43:49;;;;;;;7.30;3.65;;;;;;;2.33;62.21;98005.00;5021743;28;20041;-78
2024/01/13 06:46:14;;;;;;;13.02;5.60;;;;;;;2.31;61.99;98000.03;5007096;28;20026;-78
2024/01/13 06:48:39;;;;;;;10.98;5.88;;;;;;;2.32;62.53;97991.34;5004104;28;20520;-78
2024/01/13 06:51:05;;;;;;;11.25;5.35;;;;;;;2.32;61.90;97988.78;5024832;28;20026;-78
2024/01/13 06:53:30;;;;;;;8.77;4.65;;;;;;;2.28;62.66;97987.53;5011060;28;20038;-78
2024/01/13 06:55:56;;;;;;;6.40;3.38;;;;;;;2.25;62.24;97980.16;5016694;28;20531;-81
2024/01/13 06:58:21;;;;;;;5.82;3.03;;;;;;;2.19;62.29;97973.13;4991405;28;20041;-81
2024/01/13 07:00:46;;;;;;;7.15;3.70;;;;;;;2.40;61.64;97959.66;4979523;28;20052;-82
2024/01/13 07:03:12;;;;;;;7.07;3.70;;;;;;;2.35;61.55;97949.91;4998220;28;20316;-82
2024/01/13 07:05:37;;;;;;;6.60;3.35;;;;;;;2.33;61.87;97945.88;5002859;28;20144;-78
2024/01/13 07:08:05;;;;;;;7.50;2.83;;;;;;;2.34;61.93;97939.78;5006653;28;20099;-77
2024/01/13 07:10:30;;;;;;;7.18;3.42;;;;;;;2.25;61.50;97944.19;5014835;28;20465;-78
2024/01/13 07:12:57;;;;;;;6.15;3.25;;;;;;;2.27;62.12;97942.25;5028028;28;20037;-78
2024/01/13 07:15:22;;;;;;;7.47;3.80;;;;;;;2.28;62.25;97943.84;5023455;28;20591;-78
2024/01/13 07:17:48;;;;;;;6.30;3.03;;;;;;;2.20;61.88;97944.69;5005168;28;20112;-78
2024/01/13 07:20:13;;;;;;;6.22;3.17;;;;;;;2.23;62.39;97953.84;4999426;28;20098;-78
2024/01/13 07:22:40;;;;;;;5.55;2.53;;;;;;;2.22;62.09;97970.22;5014171;28;20029;-78
2024/01/13 07:25:06;;;;;;;7.78;4.20;;;;;;;2.30;62.30;97965.03;5000584;28;20661;-78
2024/01/13 07:27:31;;;;;;;10.45;5.45;;;;;;;2.32;61.84;97965.66;5011819;28;20401;-78
2024/01/13 07:29:58;;;;;;;7.93;4.38;;;;;;;2.42;61.15;97968.78;5011701;28;20034;-78
2024/01/13 07:32:24;;;;;;;8.60;3.35;;;;;;;2.35;61.35;97980.72;5018808;28;20513;-78
2024/01/13 07:34:49;;;;;;;7.03;3.70;;;;;;;2.40;61.04;97981.03;4999377;28;20034;-77
2024/01/13 07:37:15;;;;;;;9.63;5.40;;;;;;;2.39;61.17;97984.56;5003514;28;20040;-78
2024/01/13 07:39:40;;;;;;;8.85;5.03;;;;;;;2.34;61.19;97986.84;5000536;28;20057;-78
2024/01/13 07:42:05;;;;;;;9.77;4.95;;;;;;;2.38;61.09;97992.44;5001750;28;20017;-78
2024/01/13 07:44:31;;;;;;;11.43;4.18;;;;;;;2.34;61.50;97974.00;5008808;28;20037;-78
2024/01/13 07:47:01;;;;;;;7.28;3.92;;;;;;;2.23;60.98;97977.75;5017188;28;20026;-78
2024/01/13 07:49:27;;;;;;;7.32;4.00;;;;;;;2.26;61.22;97976.59;5002082;28;20061;-77
2024/01/13 07:51:53;;;;;;;8.25;3.42;;;;;;;2.28;61.11;97982.41;5016719;28;20173;-78
2024/01/13 07:54:20;;;;;;;6.25;3.13;;;;;;;2.23;61.43;97985.47;4992804;28;20037;-78
2024/01/13 07:56:45;;;;;;;5.60;3.30;;;;;;;2.19;61.92;97981.66;5014947;28;20465;-78
2024/01/13 07:59:10;;;;;;;5.45;3.05;;;;;;;2.22;62.24;97975.38;4999668;28;20103;-77
2024/01/13 08:01:38;;;;;;;8.07;3.38;;;;;;;2.32;61.76;97982.84;5017254;28;20269;-78
2024/01/13 08:04:04;;;;;;;6.07;3.15;;;;;;;2.27;61.39;97975.66;5018190;28;20505;-78
2024/01/13 08:06:29;;;;;;;6.28;3.13;;;;;;;2.38;60.77;97971.88;5013487;28;20045;-82
2024/01/13 08:08:56;;;;;;;5.55;2.90;;;;;;;2.43;60.04;97974.72;5006128;28;20033;-82
2024/01/13 08:11:21;;;;;;;4.93;2.60;;;;;;;2.42;58.97;97979.06;4985804;28;20034;-80
2024/01/13 08:13:47;;;;;;;3.67;2.10;;;;;;;2.27;58.64;97988.50;5004693;28;20132;-82
2024/01/13 08:16:12;;;;;;;5.93;3.25;;;;;;;2.29;59.47;97983.19;5007552;28;20041;-78
2024/01/13 08:18:37;;;;;;;7.28;3.97;;;;;;;2.36;58.22;97991.81;4989990;28;20064;-78
2024/01/13 08:21:03;;;;;;;5.82;2.97;;;;;;;2.31;58.42;97992.31;5001102;28;20395;-78
2024/01/13 08:23:28;;;;;;;5.30;2.42;;;;;;;2.27;59.42;97991.06;4978805;28;20034;-78
2024/01/13 08:25:54;;;;;;;4.50;2.60;;;;;;;2.22;59.08;97985.63;4982703;28;20033;-78
2024/01/13 08:28:20;;;;;;;6.25;2.42;;;;;;;2.26;59.05;97992.03;5003776;28;20497;-78
2024/01/13 08:30:45;;;;;;;5.85;2.90;;;;;;;2.27;59.40;97998.78;5009270;28;20038;-78
2024/01/13 08:33:11;;;;;;;5.35;3.58;;;;;;;2.31;58.99;97992.31;5019312;28;20030;-78
2024/01/13 08:35:37;;;;;;;6.93;3.80;;;;;;;2.31;59.01;98002.59;4997098;28;20512;-78
2024/01/13 08:38:03;;;;;;;4.78;2.90;;;;;;;2.38;58.48;98008.66;4979918;28;20230;-78
2024/01/13 08:40:31;;;;;;;5.72;2.67;;;;;;;2.34;58.26;98004.03;4997300;28;20029;-78
2024/01/13 08:42:59;;;;;;;5.03;3.08;;;;;;;2.28;58.55;97997.81;5009690;28;20112;-78
2024/01/13 08:45:29;;;;;;;7.45;3.88;;;;;;;2.30;59.18;98000.22;5016707;28;20042;-78
2024/01/13 08:47:58;;;;;;;6.82;3.70;;;;;;;2.35;58.88;98003.06;5035502;28;20396;-78
2024/01/13 08:50:24;;;;;;;5.90;3.70;;;;;;;2.44;58.81;98009.75;5002939;28;20853;-78
2024/01/13 08:52:52;;;;;;;8.60;4.38;;;;;;;2.31;58.83;98014.66;5013318;28;20042;-78
2024/01/13 08:55:21;;;;;;;4.72;2.80;;;;;;;2.54;58.68;98004.38;5011381;28;20033;-78
2024/01/13 08:57:46;;;;;;;3.88;2.50;;;;;;;2.50;58.60;97992.84;5007337;28;20035;-78
2024/01/13 09:00:13;;;;;;;4.50;2.60;;;;;;;2.48;58.93;97987.06;5015128;28;20033;-78
2024/01/13 09:02:40;;;;;;;7.50;4.45;;;;;;;2.49;58.52;97994.59;5017453;28;20497;-78
2024/01/13 09:05:06;;;;;;;7.20;4.50;;;;;;;2.54;58.36;97996.66;4984417;28;20103;-77
2024/01/13 09:07:33;;;;;;;7.78;4.18;;;;;;;2.42;57.75;97996.28;5001213;28;20034;-78
2024/01/13 09:09:59;;;;;;;5.85;3.53;;;;;;;2.39;57.95;97994.03;5005571;28;20104;-78
2024/01/13 09:12:24;;;;;;;5.70;3.58;;;;;;;2.40;58.29;97970.75;5015725;28;20441;-78
2024/01/13 09:14:49;;;;;;;6.63;4.38;;;;;;;2.38;59.23;97957.28;5006073;28;20124;-81
2024/01/13 09:17:15;;;;;;;6.30;3.53;;;;;;;2.32;59.10;97957.94;5013879;28;20040;-81
2024/01/13 09:19:40;;;;;;;3.95;2.75;;;;;;;2.35;59.12;97969.66;5008099;28;20080;-81
2024/01/13 09:22:05;;;;;;;5.38;3.75;;;;;;;2.46;59.18;97974.38;5022736;28;20033;-82
2024/01/13 09:24:31;;;;;;;4.97;3.15;;;;;;;2.53;59.03;97964.22;5007448;28;20034;-82
2024/01/13 09:26:56;;;;;;;7.30;3.28;;;;;;;2.51;58.96;97958.47;5013030;28;20026;-78
2024/01/13 09:29:22;;;;;;;6.13;3.15;;;;;;;2.54;58.87;97961.47;4991841;28;20442;-78
2024/01/13 09:31:49;;;;;;;5.93;3.63;;;;;;;2.60;58.08;97949.69;4996414;28;20034;-77
2024/01/13 09:34:14;;;;;;;4.88;2.88;;;;;;;2.60;57.56;97959.97;5007769;28;20550;-77
2024/01/13 09:36:41;;;;;;;4.60;2.65;;;;;;;2.53;58.54;97965.00;4989957;28;20036;-77
2024/01/13 09:39:14;;;;;;;5.15;2.85;;;;;;;2.47;58.75;97978.56;5008624;28;20042;-78
2024/01/13 09:41:46;;;;;;;4.45;3.25;;;;;;;2.52;58.31;97972.88;5005151;28;20042;-78
2024/01/13 09:44:11;;;;;;;5.88;2.95;;;;;;;2.36;59.07;97969.47;5024162;28;20038;-78
2024/01/13 09:46:37;;;;;;;5.32;2.72;;;;;;;2.50;58.21;97967.13;5020461;28;20390;-78
2024/01/13 09:49:06;;;;;;;5.45;3.58;;;;;;;2.53;58.16;97966.78;4994959;28;20036;-78
2024/01/13 09:51:32;;;;;;;5.05;2.90;;;;;;;2.47;58.59;97965.72;4988032;28;20042;-77
2024/01/13 09:54:03;;;;;;;5.97;3.45;;;;;;;2.60;58.35;97959.97;4981892;28;20141;-78
2024/01/13 09:56:32;;;;;;;6.38;3.53;;;;;;;2.64;58.11;97948.38;4983522;28;20076;-78
2024/01/13 09:58:58;;;;;;;4.00;2.90;;;;;;;2.64;58.26;97945.81;5004464;28;20034;-78
2024/01/13 10:01:26;;;;;;;5.88;3.33;;;;;;;2.67;58.83;97949.78;5016016;28;20620;-78
2024/01/13 10:03:52;;;;;;;7.55;4.40;;;;;;;2.61;57.71;97949.53;5002773;28;20152;-77
2024/01/13 10:06:18;;;;;;;8.20;4.35;;;;;;;2.76;58.44;97941.84;5007897;28;20527;-77
2024/01/13 10:08:44;;;;;;;16.90;6.95;;;;;;;2.68;57.52;97928.28;5002033;28;20034;-78
2024/01/13 10:11:09;;;;;;;18.20;8.48;;;;;;;2.61;58.09;97944.38;5005537;28;20034;-78
2024/01/13 10:13:36;;;;;;;23.52;10.93;;;;;;;2.67;57.41;97948.00;5024143;28;20319;-78
2024/01/13 10:16:02;;;;;;;19.33;8.73;;;;;;;2.69;57.40;97942.69;5023497;28;20026;-77
2024/01/13 10:18:30;;;;;;;46.10;21.83;;;;;;;2.83;57.11;97948.84;5022981;28;20504;-78
2024/01/13 10:20:56;;;;;;;35.58;18.75;;;;;;;2.70;57.20;97934.03;4998750;28;20034;-77
2024/01/13 10:23:22;;;;;;;18.40;10.25;;;;;;;2.67;57.13;97914.59;5010159;28;20044;-77
2024/01/13 10:25:49;;;;;;;8.25;4.95;;;;;;;2.59;57.05;97906.97;4994446;28;20033;-78
2024/01/13 10:28:15;;;;;;;9.10;4.55;;;;;;;2.56;57.49;97899.63;5024226;28;20394;-78
2024/01/13 10:30:40;;;;;;;6.43;3.92;;;;;;;2.57;57.68;97889.16;5007400;28;20042;-78
2024/01/13 10:33:09;;;;;;;11.07;6.38;;;;;;;2.76;57.15;97892.16;5016430;28;20370;-78
2024/01/13 10:35:34;;;;;;;7.72;5.70;;;;;;;2.75;57.11;97873.38;5007087;28;20038;-78
2024/01/13 10:37:59;;;;;;;7.45;4.82;;;;;;;2.69;57.43;97863.81;5026307;28;20045;-78
2024/01/13 10:40:26;;;;;;;6.75;4.15;;;;;;;2.62;57.55;97874.00;5017300;28;20033;-78
2024/01/13 10:42:57;;;;;;;9.93;5.65;;;;;;;2.71;57.39;97861.84;5016018;28;20038;-77
2024/01/13 10:45:24;;;;;;;9.48;5.97;;;;;;;2.69;57.20;97863.81;5006436;28;20160;-77
2024/01/13 10:47:54;;;;;;;13.27;8.18;;;;;;;2.73;56.68;97865.03;5005094;28;20074;-78
2024/01/13 10:50:20;;;;;;;20.23;10.85;;;;;;;2.69;56.95;97878.44;4982188;28;20594;-77
2024/01/13 10:53:03;;;;;;;10.60;5.93;;;;;;;2.70;56.36;97885.97;5005117;28;20042;-77
2024/01/13 10:55:32;;;;;;;8.23;5.07;;;;;;;2.55;56.99;97885.16;4985019;28;20036;-77
2024/01/13 10:58:01;;;;;;;8.90;5.20;;;;;;;2.53;56.80;97895.59;5000120;28;20065;-78
2024/01/13 11:00:27;;;;;;;8.82;4.90;;;;;;;2.38;57.76;97879.34;5014123;28;20041;-77
2024/01/13 11:02:53;;;;;;;7.68;4.70;;;;;;;2.40;57.61;97860.22;5014917;28;20033;-78
2024/01/13 11:05:22;;;;;;;8.50;4.95;;;;;;;2.15;57.87;97841.66;5009940;28;20026;-78
2024/01/13 11:07:48;;;;;;;7.85;4.95;;;;;;;2.35;57.44;97831.69;4986028;28;20042;-77
2024/01/13 11:10:18;;;;;;;9.02;5.18;;;;;;;2.59;57.25;97842.72;4975560;28;20121;-77
2024/01/13 11:12:57;;;;;;;8.23;4.65;;;;;;;2.60;57.32;97828.88;4983347;28;20496;-77
2024/01/13 11:15:26;;;;;;;7.50;4.68;;;;;;;2.49;57.45;97844.75;4997538;28;20026;-78
2024/01/13 11:17:52;;;;;;;8.02;5.00;;;;;;;2.46;57.70;97863.88;5006968;28;20034;-77
2024/01/13 11:20:18;;;;;;;7.28;4.63;;;;;;;2.49;57.17;97860.16;5003798;28;20371;-77
2024/01/13 11:22:55;;;;;;;9.82;6.05;;;;;;;2.60;56.87;97862.28;5014108;28;20042;-77
2024/01/13 11:25:25;;;;;;;7.75;4.85;;;;;;;2.54;56.54;97848.38;4989235;28;20041;-77
2024/01/13 11:27:57;;;;;;;8.43;4.65;;;;;;;2.58;56.79;97843.66;5010395;28;20041;-78
2024/01/13 11:30:37;;;;;;;9.77;5.25;;;;;;;2.62;56.28;97847.47;5013851;28;20050;-78